| time (UTC) | temp C | wind direction | speed KPH | gust KPH | rain 1hr cm | rain 24hr cm | rain mn cm | humidity % | barometer mb |
| 20260905223506 | 17 | 269 | 11.3 | 24.1 | 0.00 | 0.00 | 0.00 | 51 | 1021.5 |
| 20260905223006 | 17 | 277 | 11.3 | 24.1 | 0.00 | 0.00 | 0.00 | 52 | 1021.5 |
| 20260905222527 | 17 | 277 | 9.7 | 16.1 | 0.00 | 0.00 | 0.00 | 54 | 1021.5 |
| 20260905222006 | 16 | 264 | 9.7 | 17.7 | 0.00 | 0.00 | 0.00 | 57 | 1021.4 |
| 20260905221506 | 16 | 260 | 9.7 | 17.7 | 0.00 | 0.00 | 0.00 | 60 | 1021.5 |
| 20260905221006 | 15 | 274 | 4.8 | 12.9 | 0.00 | 0.00 | 0.00 | 62 | 1021.4 |
| 20260905220506 | 15 | 265 | 3.2 | 12.9 | 0.00 | 0.00 | 0.00 | 63 | 1021.5 |
| 20260905220006 | 15 | 257 | 3.2 | 12.9 | 0.00 | 0.00 | 0.00 | 65 | 1021.4 |
| 20260905215506 | 15 | 285 | 1.6 | 6.4 | 0.00 | 0.00 | 0.00 | 65 | 1021.4 |
| 20260905215006 | 15 | 291 | 3.2 | 6.4 | 0.00 | 0.00 | 0.00 | 65 | 1021.3 |
| 20260905214506 | 15 | 66 | 3.2 | 6.4 | 0.00 | 0.00 | 0.00 | 65 | 1021.2 |
| 20260905214006 | 15 | 45 | 1.6 | 6.4 | 0.00 | 0.00 | 0.00 | 64 | 1021.3 |
| 20260905213527 | 15 | 37 | 1.6 | 6.4 | 0.00 | 0.00 | 0.00 | 64 | 1021.4 |
| 20260905213027 | 15 | 41 | 1.6 | 6.4 | 0.00 | 0.00 | 0.00 | 64 | 1021.4 |
| 20260905212527 | 15 | 25 | 1.6 | 4.8 | 0.00 | 0.00 | 0.00 | 64 | 1021.4 |
| 20260905212027 | 15 | 7 | 1.6 | 4.8 | 0.00 | 0.00 | 0.00 | 64 | 1021.3 |
| 20260905211506 | 15 | 7 | 3.2 | 8.0 | 0.00 | 0.00 | 0.00 | 63 | 1021.3 |
| 20260905211006 | 15 | 26 | 3.2 | 8.0 | 0.00 | 0.00 | 0.00 | 63 | 1021.2 |
| 20260905210506 | 15 | 45 | 1.6 | 8.0 | 0.00 | 0.00 | 0.00 | 63 | 1021.1 |
| 20260905210006 | 15 | 35 | 3.2 | 8.0 | 0.00 | 0.00 | 0.00 | 63 | 1021.1 |
| 20260905205506 | 15 | 34 | 3.2 | 8.0 | 0.00 | 0.00 | 0.00 | 63 | 1021.1 |
| 20260905205006 | 15 | 42 | 3.2 | 6.4 | 0.00 | 0.00 | 0.00 | 63 | 1021.0 |
| 20260905204506 | 15 | 33 | 4.8 | 8.0 | 0.00 | 0.00 | 0.00 | 63 | 1021.0 |
| 20260905204027 | 15 | 29 | 4.8 | 8.0 | 0.00 | 0.00 | 0.00 | 62 | 1021.1 |
| 20260905203506 | 15 | 31 | 1.6 | 6.4 | 0.00 | 0.00 | 0.00 | 62 | 1021.1 |
| 20260905203006 | 15 | 79 | 1.6 | 6.4 | 0.00 | 0.00 | 0.00 | 62 | 1021.1 |
| 20260905202506 | 15 | 58 | 3.2 | 8.0 | 0.00 | 0.00 | 0.00 | 62 | 1021.2 |
| 20260905202006 | 15 | 25 | 1.6 | 8.0 | 0.00 | 0.00 | 0.00 | 62 | 1021.1 |
| 20260905201506 | 15 | 11 | 1.6 | 6.4 | 0.00 | 0.00 | 0.00 | 62 | 1021.2 |
| 20260905201027 | 15 | 30 | 1.6 | 6.4 | 0.00 | 0.00 | 0.00 | 62 | 1021.2 |
| 20260905200506 | 15 | 45 | 1.6 | 6.4 | 0.00 | 0.00 | 0.00 | 61 | 1021.2 |
| 20260905200006 | 15 | 70 | 1.6 | 4.8 | 0.00 | 0.00 | 0.00 | 61 | 1021.2 |
| 20260905195506 | 15 | 41 | 3.2 | 6.4 | 0.00 | 0.00 | 0.00 | 61 | 1021.0 |
| 20260905195006 | 15 | 22 | 3.2 | 6.4 | 0.00 | 0.00 | 0.00 | 61 | 1021.2 |
| 20260905194506 | 15 | 38 | 0.0 | 4.8 | 0.00 | 0.00 | 0.00 | 61 | 1021.3 |
| 20260905194006 | 15 | 43 | 1.6 | 4.8 | 0.00 | 0.00 | 0.00 | 61 | 1021.1 |
| 20260905193506 | 16 | 319 | 3.2 | 6.4 | 0.00 | 0.00 | 0.00 | 61 | 1021.1 |
| 20260905193006 | 16 | 303 | 3.2 | 6.4 | 0.00 | 0.00 | 0.00 | 60 | 1021.0 |
| 20260905192506 | 16 | 3 | 3.2 | 8.0 | 0.00 | 0.00 | 0.00 | 60 | 1021.0 |
| 20260905192006 | 16 | 22 | 3.2 | 8.0 | 0.00 | 0.00 | 0.00 | 60 | 1021.0 |
| 20260905191506 | 16 | 45 | 1.6 | 4.8 | 0.00 | 0.00 | 0.00 | 59 | 1021.0 |
| 20260905191006 | 16 | 88 | 1.6 | 3.2 | 0.00 | 0.00 | 0.00 | 59 | 1021.0 |
| 20260905190527 | 16 | 47 | 1.6 | 6.4 | 0.00 | 0.00 | 0.00 | 58 | 1020.9 |
| 20260905190005 | 16 | 29 | 3.2 | 6.4 | 0.00 | 0.00 | 0.00 | 57 | 1020.9 |
| 20260905185505 | 16 | 34 | 3.2 | 6.4 | 0.00 | 0.00 | 0.00 | 57 | 1020.9 |
| 20260905185006 | 17 | 53 | 1.6 | 8.0 | 0.00 | 0.00 | 0.00 | 57 | 1020.8 |
| 20260905184506 | 17 | 36 | 3.2 | 11.3 | 0.00 | 0.00 | 0.00 | 56 | 1020.8 |
| 20260905184027 | 17 | 40 | 4.8 | 11.3 | 0.00 | 0.00 | 0.00 | 55 | 1020.6 |
| 20260905183506 | 17 | 64 | 3.2 | 8.0 | 0.00 | 0.00 | 0.00 | 54 | 1020.6 |
| 20260905183005 | 17 | 50 | 3.2 | 6.4 | 0.00 | 0.00 | 0.00 | 54 | 1020.6 |
| 20260905182505 | 17 | 47 | 3.2 | 11.3 | 0.00 | 0.00 | 0.00 | 53 | 1020.5 |
| 20260905182005 | 18 | 43 | 4.8 | 11.3 | 0.00 | 0.00 | 0.00 | 53 | 1020.4 |
| 20260905181505 | 18 | 38 | 6.4 | 11.3 | 0.00 | 0.00 | 0.00 | 52 | 1020.3 |
| 20260905181005 | 18 | 42 | 3.2 | 8.0 | 0.00 | 0.00 | 0.00 | 49 | 1020.3 |
| 20260905180505 | 18 | 63 | 1.6 | 4.8 | 0.00 | 0.00 | 0.00 | 47 | 1020.3 |
| 20260905180005 | 18 | 149 | 1.6 | 6.4 | 0.00 | 0.00 | 0.00 | 45 | 1020.1 |
| 20260905175505 | 19 | 176 | 1.6 | 6.4 | 0.00 | 0.00 | 0.00 | 45 | 1020.1 |
| 20260905175005 | 19 | 186 | 3.2 | 6.4 | 0.00 | 0.00 | 0.00 | 45 | 1019.9 |
| 20260905174526 | 19 | 202 | 1.6 | 6.4 | 0.00 | 0.00 | 0.00 | 44 | 1020.0 |
| 20260905174005 | 19 | 192 | 3.2 | 8.0 | 0.00 | 0.00 | 0.00 | 44 | 1019.9 |
| 20260905173505 | 20 | 178 | 3.2 | 8.0 | 0.00 | 0.00 | 0.00 | 44 | 1019.9 |
| 20260905173005 | 20 | 184 | 3.2 | 11.3 | 0.00 | 0.00 | 0.00 | 43 | 1019.7 |
| 20260905172505 | 20 | 200 | 4.8 | 11.3 | 0.00 | 0.00 | 0.00 | 43 | 1019.7 |
| 20260905172005 | 20 | 200 | 4.8 | 11.3 | 0.00 | 0.00 | 0.00 | 43 | 1019.7 |
| 20260905171505 | 20 | 193 | 4.8 | 11.3 | 0.00 | 0.00 | 0.00 | 43 | 1019.6 |
| 20260905171005 | 20 | 194 | 4.8 | 11.3 | 0.00 | 0.00 | 0.00 | 43 | 1019.6 |
| 20260905170505 | 20 | 194 | 4.8 | 9.7 | 0.00 | 0.00 | 0.00 | 42 | 1019.5 |
| 20260905170005 | 21 | 203 | 4.8 | 12.9 | 0.00 | 0.00 | 0.00 | 42 | 1019.4 |
| 20260905165505 | 21 | 207 | 4.8 | 12.9 | 0.00 | 0.00 | 0.00 | 42 | 1019.2 |
| 20260905165026 | 21 | 195 | 3.2 | 8.0 | 0.00 | 0.00 | 0.00 | 42 | 1019.3 |
| 20260905164505 | 21 | 212 | 4.8 | 9.7 | 0.00 | 0.00 | 0.00 | 41 | 1019.3 |
| 20260905164005 | 21 | 242 | 8.0 | 17.7 | 0.00 | 0.00 | 0.00 | 41 | 1019.3 |
| 20260905163505 | 21 | 264 | 9.7 | 17.7 | 0.00 | 0.00 | 0.00 | 41 | 1019.1 |
| 20260905163005 | 21 | 281 | 9.7 | 17.7 | 0.00 | 0.00 | 0.00 | 41 | 1019.1 |
| 20260905162505 | 21 | 273 | 9.7 | 17.7 | 0.00 | 0.00 | 0.00 | 41 | 1019.1 |
| 20260905162005 | 21 | 251 | 9.7 | 17.7 | 0.00 | 0.00 | 0.00 | 41 | 1019.2 |
| 20260905161505 | 21 | 238 | 11.3 | 24.1 | 0.00 | 0.00 | 0.00 | 40 | 1019.1 |
| 20260905161005 | 21 | 246 | 11.3 | 24.1 | 0.00 | 0.00 | 0.00 | 40 | 1019.0 |
| 20260905160526 | 21 | 268 | 11.3 | 19.3 | 0.00 | 0.00 | 0.00 | 40 | 1018.9 |
| 20260905160005 | 21 | 249 | 11.3 | 22.5 | 0.00 | 0.00 | 0.00 | 40 | 1018.9 |
| 20260905155505 | 21 | 255 | 12.9 | 27.4 | 0.00 | 0.00 | 0.00 | 40 | 1019.0 |
| 20260905155026 | 21 | 243 | 14.5 | 27.4 | 0.00 | 0.00 | 0.00 | 39 | 1018.9 |
| 20260905154505 | 22 | 227 | 12.9 | 24.1 | 0.00 | 0.00 | 0.00 | 39 | 1018.9 |
| 20260905154004 | 22 | 231 | 12.9 | 20.9 | 0.00 | 0.00 | 0.00 | 39 | 1018.9 |
| 20260905153505 | 22 | 210 | 12.9 | 22.5 | 0.00 | 0.00 | 0.00 | 39 | 1018.9 |
| 20260905153004 | 22 | 224 | 14.5 | 22.5 | 0.00 | 0.00 | 0.00 | 38 | 1018.7 |
| 20260905152504 | 22 | 248 | 12.9 | 22.5 | 0.00 | 0.00 | 0.00 | 37 | 1018.6 |
| 20260905152005 | 22 | 247 | 11.3 | 20.9 | 0.00 | 0.00 | 0.00 | 38 | 1018.8 |
| 20260905151505 | 22 | 224 | 9.7 | 17.7 | 0.00 | 0.00 | 0.00 | 38 | 1018.8 |
| 20260905151005 | 22 | 215 | 9.7 | 17.7 | 0.00 | 0.00 | 0.00 | 37 | 1018.9 |
| 20260905150505 | 22 | 233 | 12.9 | 22.5 | 0.00 | 0.00 | 0.00 | 37 | 1018.8 |
| 20260905150005 | 22 | 223 | 12.9 | 22.5 | 0.00 | 0.00 | 0.00 | 36 | 1018.9 |
| 20260905145504 | 22 | 190 | 12.9 | 22.5 | 0.00 | 0.00 | 0.00 | 37 | 1018.9 |
| 20260905145004 | 22 | 192 | 14.5 | 22.5 | 0.00 | 0.00 | 0.00 | 37 | 1018.8 |
| 20260905144504 | 22 | 190 | 16.1 | 24.1 | 0.00 | 0.00 | 0.00 | 36 | 1018.7 |
| 20260905144005 | 22 | 181 | 17.7 | 27.4 | 0.00 | 0.00 | 0.00 | 36 | 1018.8 |
| 20260905143505 | 22 | 204 | 17.7 | 27.4 | 0.00 | 0.00 | 0.00 | 36 | 1018.7 |
| 20260905143004 | 22 | 236 | 16.1 | 24.1 | 0.00 | 0.00 | 0.00 | 35 | 1018.8 |
| 20260905142504 | 22 | 228 | 14.5 | 24.1 | 0.00 | 0.00 | 0.00 | 35 | 1018.9 |
| 20260905142005 | 22 | 257 | 16.1 | 24.1 | 0.00 | 0.00 | 0.00 | 35 | 1018.9 |
| 20260905141505 | 22 | 248 | 17.7 | 25.7 | 0.00 | 0.00 | 0.00 | 34 | 1018.8 |
| 20260905141005 | 22 | 231 | 16.1 | 25.7 | 0.00 | 0.00 | 0.00 | 35 | 1018.9 |
| 20260905140505 | 22 | 239 | 14.5 | 27.4 | 0.00 | 0.00 | 0.00 | 35 | 1018.7 |
| 20260905140026 | 22 | 231 | 14.5 | 27.4 | 0.00 | 0.00 | 0.00 | 35 | 1018.7 |
| 20260905135505 | 22 | 257 | 14.5 | 25.7 | 0.00 | 0.00 | 0.00 | 34 | 1018.5 |
| 20260905135005 | 23 | 269 | 12.9 | 24.1 | 0.00 | 0.00 | 0.00 | 33 | 1018.4 |
| 20260905134504 | 23 | 242 | 12.9 | 22.5 | 0.00 | 0.00 | 0.00 | 33 | 1018.4 |
| 20260905134004 | 23 | 230 | 14.5 | 25.7 | 0.00 | 0.00 | 0.00 | 34 | 1018.5 |
| 20260905133505 | 23 | 247 | 16.1 | 32.2 | 0.00 | 0.00 | 0.00 | 33 | 1018.5 |
| 20260905133025 | 23 | 242 | 16.1 | 32.2 | 0.00 | 0.00 | 0.00 | 33 | 1018.6 |
| 20260905132525 | 23 | 251 | 16.1 | 24.1 | 0.00 | 0.00 | 0.00 | 31 | 1018.6 |
| 20260905132004 | 23 | 249 | 14.5 | 25.7 | 0.00 | 0.00 | 0.00 | 30 | 1018.4 |
| 20260905131504 | 23 | 240 | 11.3 | 25.7 | 0.00 | 0.00 | 0.00 | 30 | 1018.4 |
| 20260905131004 | 23 | 263 | 8.0 | 16.1 | 0.00 | 0.00 | 0.00 | 30 | 1018.3 |
| 20260905130505 | 23 | 241 | 9.7 | 17.7 | 0.00 | 0.00 | 0.00 | 31 | 1018.2 |
| 20260905130025 | 23 | 240 | 11.3 | 24.1 | 0.00 | 0.00 | 0.00 | 33 | 1018.2 |
| 20260905125504 | 23 | 255 | 12.9 | 24.1 | 0.00 | 0.00 | 0.00 | 35 | 1018.1 |
| 20260905125004 | 23 | 239 | 14.5 | 25.7 | 0.00 | 0.00 | 0.00 | 36 | 1018.2 |
| 20260905124525 | 23 | 209 | 14.5 | 25.7 | 0.00 | 0.00 | 0.00 | 36 | 1018.3 |
| 20260905124004 | 22 | 223 | 14.5 | 29.0 | 0.00 | 0.00 | 0.00 | 38 | 1018.2 |
| 20260905123504 | 22 | 236 | 16.1 | 29.0 | 0.00 | 0.00 | 0.00 | 36 | 1018.2 |
| 20260905123004 | 22 | 216 | 16.1 | 32.2 | 0.00 | 0.00 | 0.00 | 38 | 1018.2 |
| 20260905122504 | 22 | 222 | 17.7 | 32.2 | 0.00 | 0.00 | 0.00 | 38 | 1018.2 |
| 20260905122004 | 22 | 219 | 16.1 | 25.7 | 0.00 | 0.00 | 0.00 | 40 | 1018.3 |
| 20260905121525 | 22 | 221 | 14.5 | 25.7 | 0.00 | 0.00 | 0.00 | 41 | 1018.3 |
| 20260905121004 | 22 | 241 | 14.5 | 27.4 | 0.00 | 0.00 | 0.00 | 40 | 1018.3 |
| 20260905120504 | 22 | 226 | 14.5 | 27.4 | 0.00 | 0.00 | 0.00 | 41 | 1018.4 |
| 20260905120004 | 21 | 212 | 14.5 | 24.1 | 0.00 | 0.00 | 0.00 | 41 | 1018.5 |
| 20260905115504 | 21 | 215 | 14.5 | 25.7 | 0.00 | 0.00 | 0.00 | 43 | 1018.4 |
| 20260905115004 | 21 | 230 | 14.5 | 25.7 | 0.00 | 0.00 | 0.00 | 44 | 1018.4 |
| 20260905114504 | 21 | 237 | 12.9 | 20.9 | 0.00 | 0.00 | 0.00 | 47 | 1018.5 |
| 20260905114004 | 20 | 216 | 11.3 | 20.9 | 0.00 | 0.00 | 0.00 | 48 | 1018.5 |
| 20260905113504 | 20 | 236 | 14.5 | 24.1 | 0.00 | 0.00 | 0.00 | 47 | 1018.6 |
| 20260905113004 | 21 | 241 | 16.1 | 24.1 | 0.00 | 0.00 | 0.00 | 47 | 1018.6 |
| 20260905112504 | 21 | 228 | 16.1 | 25.7 | 0.00 | 0.00 | 0.00 | 46 | 1018.6 |
| 20260905112004 | 21 | 234 | 17.7 | 27.4 | 0.00 | 0.00 | 0.00 | 44 | 1018.6 |
| 20260905111504 | 21 | 242 | 17.7 | 27.4 | 0.00 | 0.00 | 0.00 | 44 | 1018.6 |
| 20260905111004 | 21 | 244 | 14.5 | 27.4 | 0.00 | 0.00 | 0.00 | 45 | 1018.6 |
| 20260905110504 | 21 | 241 | 12.9 | 24.1 | 0.00 | 0.00 | 0.00 | 47 | 1018.7 |
| 20260905110025 | 21 | 223 | 12.9 | 24.1 | 0.00 | 0.00 | 0.00 | 47 | 1018.7 |
| 20260905105504 | 20 | 214 | 14.5 | 29.0 | 0.00 | 0.00 | 0.00 | 50 | 1018.6 |
| 20260905105025 | 21 | 204 | 16.1 | 29.0 | 0.00 | 0.00 | 0.00 | 50 | 1018.7 |
| 20260905104504 | 20 | 175 | 12.9 | 24.1 | 0.00 | 0.00 | 0.00 | 50 | 1018.8 |
| 20260905104004 | 20 | 187 | 12.9 | 22.5 | 0.00 | 0.00 | 0.00 | 50 | 1018.7 |
| 20260905103504 | 20 | 222 | 11.3 | 22.5 | 0.00 | 0.00 | 0.00 | 51 | 1018.8 |
| 20260905103004 | 20 | 256 | 11.3 | 24.1 | 0.00 | 0.00 | 0.00 | 51 | 1019.0 |
| 20260905102525 | 20 | 255 | 11.3 | 24.1 | 0.00 | 0.00 | 0.00 | 51 | 1019.1 |
| 20260905102004 | 20 | 270 | 14.5 | 25.7 | 0.00 | 0.00 | 0.00 | 51 | 1019.1 |
| 20260905101525 | 20 | 271 | 19.3 | 30.6 | 0.00 | 0.00 | 0.00 | 50 | 1019.4 |
| 20260905101004 | 20 | 270 | 20.9 | 35.4 | 0.00 | 0.00 | 0.00 | 50 | 1018.8 |
| 20260905100504 | 21 | 286 | 19.3 | 35.4 | 0.00 | 0.00 | 0.00 | 50 | 1019.2 |
| 20260905100004 | 21 | 283 | 12.9 | 35.4 | 0.00 | 0.00 | 0.00 | 50 | 1019.2 |
| 20260905095504 | 21 | 278 | 9.7 | 14.5 | 0.00 | 0.00 | 0.00 | 50 | 1018.8 |
| 20260905095004 | 21 | 257 | 8.0 | 14.5 | 0.00 | 0.00 | 0.00 | 50 | 1018.6 |
| 20260905094504 | 20 | 218 | 8.0 | 19.3 | 0.00 | 0.00 | 0.00 | 51 | 1018.5 |
| 20260905094025 | 20 | 215 | 9.7 | 19.3 | 0.00 | 0.00 | 0.00 | 53 | 1018.2 |
| 20260905093503 | 20 | 225 | 9.7 | 16.1 | 0.00 | 0.00 | 0.00 | 53 | 1018.2 |
| 20260905093004 | 20 | 215 | 9.7 | 16.1 | 0.00 | 0.00 | 0.00 | 53 | 1018.1 |
| 20260905092504 | 20 | 206 | 8.0 | 12.9 | 0.00 | 0.00 | 0.00 | 55 | 1018.1 |
| 20260905092004 | 20 | 224 | 6.4 | 12.9 | 0.00 | 0.00 | 0.00 | 56 | 1018.3 |
| 20260905091504 | 20 | 251 | 6.4 | 16.1 | 0.00 | 0.00 | 0.00 | 56 | 1018.2 |
| 20260905091025 | 20 | 232 | 8.0 | 16.1 | 0.00 | 0.00 | 0.00 | 55 | 1018.3 |
| 20260905090503 | 20 | 227 | 11.3 | 24.1 | 0.00 | 0.00 | 0.00 | 55 | 1018.7 |
| 20260905090004 | 20 | 242 | 11.3 | 24.1 | 0.00 | 0.00 | 0.00 | 55 | 1018.9 |
| 20260905085504 | 20 | 254 | 12.9 | 19.3 | 0.00 | 0.00 | 0.00 | 54 | 1018.7 |
| 20260905085024 | 20 | 233 | 12.9 | 20.9 | 0.00 | 0.00 | 0.00 | 56 | 1018.4 |
| 20260905084504 | 20 | 232 | 12.9 | 22.5 | 0.00 | 0.00 | 0.00 | 57 | 1018.9 |
| 20260905084025 | 20 | 231 | 14.5 | 24.1 | 0.00 | 0.00 | 0.00 | 57 | 1018.9 |
| 20260905083504 | 20 | 239 | 16.1 | 24.1 | 0.00 | 0.00 | 0.00 | 55 | 1019.2 |
| 20260905083003 | 20 | 263 | 14.5 | 24.1 | 0.00 | 0.00 | 0.00 | 53 | 1019.3 |
| 20260905082503 | 20 | 251 | 19.3 | 35.4 | 0.00 | 0.00 | 0.00 | 53 | 1019.1 |
| 20260905082004 | 20 | 240 | 20.9 | 35.4 | 0.00 | 0.00 | 0.00 | 51 | 1018.8 |
| 20260905081525 | 21 | 238 | 19.3 | 30.6 | 0.00 | 0.00 | 0.00 | 50 | 1018.9 |
| 20260905081003 | 20 | 234 | 16.1 | 30.6 | 0.00 | 0.00 | 0.00 | 51 | 1019.0 |
| 20260905080503 | 20 | 242 | 11.3 | 24.1 | 0.00 | 0.00 | 0.00 | 52 | 1018.9 |
| 20260905080003 | 20 | 230 | 6.4 | 12.9 | 0.00 | 0.00 | 0.00 | 53 | 1018.6 |
| 20260905075503 | 20 | 204 | 6.4 | 12.9 | 0.00 | 0.00 | 0.00 | 53 | 1018.3 |
| 20260905075003 | 20 | 205 | 6.4 | 12.9 | 0.00 | 0.00 | 0.00 | 53 | 1017.9 |
| 20260905074504 | 20 | 205 | 8.0 | 12.9 | 0.00 | 0.00 | 0.00 | 52 | 1018.0 |
| 20260905074004 | 20 | 207 | 9.7 | 16.1 | 0.00 | 0.00 | 0.00 | 52 | 1018.1 |
| 20260905073503 | 20 | 203 | 9.7 | 20.9 | 0.00 | 0.00 | 0.00 | 52 | 1018.4 |
| 20260905073003 | 20 | 215 | 11.3 | 22.5 | 0.00 | 0.00 | 0.00 | 52 | 1018.2 |
| 20260905072524 | 20 | 220 | 11.3 | 22.5 | 0.00 | 0.00 | 0.00 | 52 | 1018.6 |
| 20260905072003 | 20 | 197 | 8.0 | 12.9 | 0.00 | 0.00 | 0.00 | 57 | 1018.4 |
| 20260905071503 | 20 | 223 | 6.4 | 14.5 | 0.00 | 0.00 | 0.00 | 60 | 1017.9 |
| 20260905071003 | 19 | 269 | 8.0 | 17.7 | 0.00 | 0.00 | 0.00 | 58 | 1018.1 |
| 20260905070503 | 18 | 255 | 9.7 | 17.7 | 0.00 | 0.00 | 0.00 | 62 | 1018.3 |
| 20260905070004 | 17 | 203 | 4.8 | 16.1 | 0.00 | 0.00 | 0.00 | 74 | 1018.1 |
| 20260905065503 | 17 | 187 | 0.0 | 4.8 | 0.00 | 0.00 | 0.00 | 76 | 1017.9 |
| 20260905065003 | 17 | 100 | 1.6 | 6.4 | 0.00 | 0.00 | 0.00 | 78 | 1017.8 |
| 20260905064503 | 17 | 37 | 3.2 | 6.4 | 0.00 | 0.00 | 0.00 | 78 | 1017.7 |
| 20260905064003 | 16 | 11 | 3.2 | 6.4 | 0.00 | 0.00 | 0.00 | 80 | 1017.7 |
| 20260905063503 | 16 | 225 | 4.8 | 9.7 | 0.00 | 0.00 | 0.00 | 82 | 1017.7 |
| 20260905063003 | 16 | 193 | 6.4 | 11.3 | 0.00 | 0.00 | 0.00 | 83 | 1017.8 |
| 20260905062503 | 16 | 182 | 6.4 | 11.3 | 0.00 | 0.00 | 0.00 | 83 | 1017.5 |
| 20260905062028 | 16 | 178 | 3.2 | 9.7 | 0.00 | 0.00 | 0.00 | 82 | 1017.6 |
| 20260905061528 | 15 | 89 | 1.6 | 6.4 | 0.00 | 0.00 | 0.00 | 82 | 1017.8 |
| 20260905061008 | 15 | 158 | 1.6 | 4.8 | 0.00 | 0.00 | 0.00 | 83 | 1017.5 |
| 20260905060507 | 15 | 112 | 1.6 | 6.4 | 0.00 | 0.00 | 0.00 | 83 | 1017.3 |
| 20260905060028 | 15 | 52 | 1.6 | 6.4 | 0.00 | 0.00 | 0.00 | 83 | 1017.1 |
| 20260905055507 | 15 | 74 | 1.6 | 4.8 | 0.00 | 0.00 | 0.00 | 82 | 1016.9 |
| 20260905055007 | 15 | 39 | 1.6 | 3.2 | 0.00 | 0.00 | 0.00 | 82 | 1017.2 |
| 20260905054507 | 15 | 4 | 1.6 | 3.2 | 0.00 | 0.00 | 0.00 | 82 | 1017.3 |
| 20260905054007 | 15 | 6 | 1.6 | 3.2 | 0.00 | 0.00 | 0.00 | 82 | 1017.1 |
| 20260905053528 | 15 | 76 | 1.6 | 3.2 | 0.00 | 0.00 | 0.00 | 82 | 1017.0 |
| 20260905053028 | 14 | 96 | 1.6 | 3.2 | 0.00 | 0.00 | 0.00 | 82 | 1016.8 |
| 20260905052507 | 14 | 51 | 1.6 | 3.2 | 0.00 | 0.00 | 0.00 | 83 | 1017.0 |
| 20260905052007 | 14 | 61 | 1.6 | 3.2 | 0.00 | 0.00 | 0.00 | 83 | 1016.9 |
| 20260905051507 | 14 | 51 | 1.6 | 3.2 | 0.00 | 0.00 | 0.00 | 84 | 1016.8 |
| 20260905051007 | 14 | 8 | 1.6 | 3.2 | 0.00 | 0.00 | 0.00 | 84 | 1016.9 |
| 20260905050507 | 13 | 41 | 1.6 | 4.8 | 0.00 | 0.00 | 0.00 | 84 | 1016.9 |
| 20260905050007 | 13 | 52 | 0.0 | 4.8 | 0.00 | 0.00 | 0.00 | 84 | 1016.5 |
| 20260905045507 | 13 | 233 | 0.0 | 1.6 | 0.00 | 0.00 | 0.00 | 84 | 1016.5 |
| 20260905045007 | 13 | 204 | 1.6 | 6.4 | 0.00 | 0.00 | 0.00 | 84 | 1016.5 |
| 20260905044507 | 13 | 210 | 1.6 | 6.4 | 0.00 | 0.00 | 0.00 | 84 | 1016.5 |
| 20260905044007 | 13 | 227 | 1.6 | 3.2 | 0.00 | 0.00 | 0.00 | 83 | 1016.1 |
| 20260905043507 | 13 | 195 | 1.6 | 4.8 | 0.00 | 0.00 | 0.00 | 83 | 1016.0 |
| 20260905043007 | 13 | 127 | 1.6 | 4.8 | 0.00 | 0.00 | 0.00 | 83 | 1015.8 |
| 20260905042507 | 13 | 71 | 3.2 | 6.4 | 0.00 | 0.00 | 0.00 | 83 | 1015.6 |
| 20260905042007 | 13 | 24 | 3.2 | 6.4 | 0.00 | 0.00 | 0.00 | 83 | 1015.7 |
| 20260905041507 | 13 | 357 | 1.6 | 6.4 | 0.00 | 0.00 | 0.00 | 84 | 1015.7 |
| 20260905041007 | 13 | 210 | 1.6 | 4.8 | 0.00 | 0.00 | 0.00 | 84 | 1016.0 |
| 20260905040507 | 13 | 176 | 3.2 | 6.4 | 0.00 | 0.00 | 0.00 | 84 | 1016.1 |
| 20260905040007 | 13 | 159 | 3.2 | 6.4 | 0.00 | 0.00 | 0.00 | 84 | 1016.1 |
| 20260905035528 | 13 | 334 | 3.2 | 6.4 | 0.00 | 0.00 | 0.00 | 84 | 1016.1 |
| 20260905035007 | 13 | 313 | 3.2 | 6.4 | 0.00 | 0.00 | 0.00 | 84 | 1016.1 |
| 20260905034507 | 13 | 315 | 1.6 | 4.8 | 0.00 | 0.00 | 0.00 | 84 | 1016.2 |
| 20260905034007 | 13 | 262 | 1.6 | 6.4 | 0.00 | 0.00 | 0.00 | 83 | 1016.2 |
| 20260905033507 | 13 | 208 | 1.6 | 6.4 | 0.00 | 0.00 | 0.00 | 83 | 1015.8 |
| 20260905033007 | 13 | 218 | 3.2 | 6.4 | 0.00 | 0.00 | 0.00 | 83 | 1016.0 |
| 20260905032507 | 13 | 195 | 3.2 | 8.0 | 0.00 | 0.00 | 0.00 | 83 | 1015.7 |
| 20260905032007 | 13 | 139 | 3.2 | 8.0 | 0.00 | 0.00 | 0.00 | 83 | 1015.9 |
| 20260905031507 | 13 | 26 | 1.6 | 4.8 | 0.00 | 0.00 | 0.00 | 83 | 1015.7 |
| 20260905031028 | 13 | 31 | 3.2 | 6.4 | 0.00 | 0.00 | 0.00 | 83 | 1015.7 |
| 20260905030507 | 13 | 39 | 3.2 | 6.4 | 0.00 | 0.00 | 0.00 | 83 | 1015.8 |
| 20260905030006 | 13 | 38 | 3.2 | 6.4 | 0.00 | 0.00 | 0.00 | 83 | 1015.6 |
| 20260905025528 | 13 | 27 | 3.2 | 6.4 | 0.00 | 0.00 | 0.00 | 83 | 1015.9 |
| 20260905025007 | 13 | 18 | 0.0 | 3.2 | 0.00 | 0.00 | 0.00 | 83 | 1015.8 |
| 20260905024507 | 13 | 103 | 0.0 | 3.2 | 0.00 | 0.00 | 0.00 | 84 | 1015.7 |
| 20260905024006 | 13 | 155 | 1.6 | 3.2 | 0.00 | 0.00 | 0.00 | 84 | 1015.7 |
| 20260905023507 | 13 | 173 | 0.0 | 3.2 | 0.00 | 0.00 | 0.00 | 84 | 1015.6 |
| 20260905023007 | 13 | 180 | 0.0 | 3.2 | 0.00 | 0.00 | 0.00 | 85 | 1015.6 |
| 20260905022507 | 13 | 180 | 0.0 | 3.2 | 0.00 | 0.00 | 0.00 | 85 | 1015.6 |
| 20260905022027 | 13 | 180 | 0.0 | 1.6 | 0.00 | 0.00 | 0.00 | 88 | 1015.6 |
| 20260905021507 | 13 | 180 | 0.0 | 1.6 | 0.00 | 0.00 | 0.00 | 88 | 1015.7 |
| 20260905021007 | 13 | 180 | 0.0 | 3.2 | 0.00 | 0.00 | 0.00 | 87 | 1015.7 |
| 20260905020507 | 13 | 189 | 1.6 | 3.2 | 0.00 | 0.00 | 0.00 | 87 | 1015.7 |
| 20260905020007 | 13 | 187 | 1.6 | 3.2 | 0.00 | 0.00 | 0.00 | 87 | 1015.8 |
| 20260905015507 | 13 | 191 | 1.6 | 3.2 | 0.00 | 0.00 | 0.00 | 87 | 1015.9 |
| 20260905015007 | 13 | 208 | 0.0 | 3.2 | 0.00 | 0.00 | 0.00 | 87 | 1015.7 |
| 20260905014507 | 13 | 205 | 0.0 | 3.2 | 0.00 | 0.00 | 0.00 | 86 | 1015.6 |
| 20260905014006 | 13 | 180 | 0.0 | 3.2 | 0.00 | 0.00 | 0.00 | 86 | 1015.7 |
| 20260905013506 | 13 | 180 | 1.6 | 3.2 | 0.00 | 0.00 | 0.00 | 86 | 1015.8 |
| 20260905013006 | 13 | 142 | 0.0 | 3.2 | 0.00 | 0.00 | 0.00 | 82 | 1015.9 |
| 20260905012528 | 13 | 71 | 0.0 | 3.2 | 0.00 | 0.00 | 0.00 | 82 | 1015.7 |
| 20260905012007 | 13 | 77 | 0.0 | 3.2 | 0.00 | 0.00 | 0.00 | 82 | 1015.8 |
| 20260905011507 | 13 | 102 | 0.0 | 3.2 | 0.00 | 0.00 | 0.00 | 82 | 1015.9 |
| 20260905011007 | 13 | 128 | 1.6 | 3.2 | 0.00 | 0.00 | 0.00 | 82 | 1015.7 |
| 20260905010506 | 13 | 30 | 1.6 | 4.8 | 0.00 | 0.00 | 0.00 | 82 | 1015.8 |
| 20260905010006 | 13 | 12 | 3.2 | 4.8 | 0.00 | 0.00 | 0.00 | 82 | 1015.8 |
| 20260905005506 | 13 | 27 | 3.2 | 4.8 | 0.00 | 0.00 | 0.00 | 82 | 1015.8 |
| 20260905005006 | 13 | 39 | 1.6 | 4.8 | 0.00 | 0.00 | 0.00 | 83 | 1015.6 |
| 20260905004506 | 13 | 50 | 1.6 | 3.2 | 0.00 | 0.00 | 0.00 | 83 | 1015.8 |
| 20260905004006 | 13 | 107 | 1.6 | 3.2 | 0.00 | 0.00 | 0.00 | 82 | 1015.9 |
| 20260905003506 | 13 | 173 | 1.6 | 4.8 | 0.00 | 0.00 | 0.00 | 82 | 1016.0 |
| 20260905003006 | 13 | 194 | 1.6 | 4.8 | 0.00 | 0.00 | 0.00 | 82 | 1015.9 |
| 20260905002507 | 13 | 234 | 0.0 | 3.2 | 0.00 | 0.00 | 0.00 | 83 | 1015.9 |
| 20260905002006 | 13 | 225 | 0.0 | 3.2 | 0.00 | 0.00 | 0.00 | 83 | 1015.7 |
| 20260905001506 | 13 | 0 | 0.0 | 0.0 | 0.00 | 0.00 | 0.00 | 83 | 1015.8 |
| 20260905001006 | 13 | 0 | 0.0 | 0.0 | 0.00 | 0.00 | 0.00 | 83 | 1015.7 |
| 20260905000527 | 13 | 0 | 0.0 | 0.0 | 0.00 | 0.00 | 0.00 | 83 | 1015.8 |
| 20260905000006 | 13 | 225 | 0.0 | 1.6 | 0.00 | 0.00 | 0.00 | 83 | 1015.9 |
| 20260904235506 | 13 | 214 | 0.0 | 3.2 | 0.00 | 0.00 | 0.00 | 82 | 1015.9 |
| 20260904235006 | 14 | 197 | 1.6 | 3.2 | 0.00 | 0.00 | 0.00 | 82 | 1016.0 |
| 20260904234506 | 14 | 180 | 0.0 | 3.2 | 0.00 | 0.00 | 0.00 | 82 | 1016.1 |
| 20260904234027 | 14 | 179 | 1.6 | 3.2 | 0.00 | 0.00 | 0.00 | 81 | 1016.1 |
| 20260904233506 | 14 | 156 | 1.6 | 3.2 | 0.00 | 0.00 | 0.00 | 81 | 1016.0 |
| 20260904233006 | 14 | 76 | 1.6 | 4.8 | 0.00 | 0.00 | 0.00 | 81 | 1016.1 |
| 20260904232527 | 14 | 40 | 1.6 | 4.8 | 0.00 | 0.00 | 0.00 | 82 | 1015.9 |
| 20260904232006 | 14 | 58 | 0.0 | 3.2 | 0.00 | 0.00 | 0.00 | 82 | 1016.1 |
| 20260904231506 | 14 | 76 | 0.0 | 3.2 | 0.00 | 0.00 | 0.00 | 82 | 1016.3 |
| 20260904231006 | 14 | 118 | 0.0 | 3.2 | 0.00 | 0.00 | 0.00 | 82 | 1016.2 |
| 20260904230506 | 14 | 120 | 0.0 | 3.2 | 0.00 | 0.00 | 0.00 | 82 | 1016.3 |
| 20260904230006 | 15 | 135 | 0.0 | 1.6 | 0.00 | 0.00 | 0.00 | 81 | 1016.4 |
| 20260904225527 | 15 | 135 | 0.0 | 3.2 | 0.00 | 0.00 | 0.00 | 81 | 1016.3 |
| 20260904225006 | 15 | 135 | 0.0 | 3.2 | 0.00 | 0.00 | 0.00 | 81 | 1016.4 |
| 20260904224506 | 15 | 135 | 0.0 | 3.2 | 0.00 | 0.00 | 0.00 | 81 | 1016.4 |
| 20260904224006 | 15 | 135 | 0.0 | 1.6 | 0.00 | 0.00 | 0.00 | 81 | 1016.3 |